Time;durP1;ratioP1;P1;durP2;ratioP2;P2;SDS_P1;SDS_P2;PMS_P1;PMS_P2;Temp;Humidity;BMP_temperature;BMP_pressure;BME280_temperature;BME280_humidity;BME280_pressure;Samples;Min_cycle;Max_cycle;Signal;HPM_P1;HPM_P2
2021/01/17 00:01:04;;;;;;;54.47;25.84;;;;;;;-16.64;66.63;99156.58;351383;112;2289933;-72
2021/01/17 00:02:10;;;;;;;53.60;25.04;;;;;;;-16.66;66.45;99160.94;346559;112;2826012;-70
2021/01/17 00:03:28;;;;;;;57.10;25.08;;;;;;;-16.68;66.53;99162.72;359891;112;1962018;-70
2021/01/17 00:04:34;;;;;;;55.66;27.09;;;;;;;-16.69;66.64;99155.87;352435;111;1961990;-70
2021/01/17 00:05:39;;;;;;;52.18;27.06;;;;;;;-16.68;66.58;99163.56;357154;111;1960954;-70
2021/01/17 00:06:45;;;;;;;56.69;25.58;;;;;;;-16.71;66.46;99160.23;346824;111;2288960;-70
2021/01/17 00:07:51;;;;;;;52.49;25.22;;;;;;;-16.70;66.81;99160.17;357334;111;1963050;-70
2021/01/17 00:08:58;;;;;;;49.08;25.37;;;;;;;-16.68;66.99;99158.39;328215;111;2682945;-70
2021/01/17 00:10:07;;;;;;;56.64;26.39;;;;;;;-16.65;66.80;99157.45;345258;111;1960812;-70
2021/01/17 00:11:13;;;;;;;47.18;23.32;;;;;;;-16.86;66.71;99120.25;334623;112;1960921;-70
2021/01/17 00:12:18;;;;;;;52.32;25.61;;;;;;;-16.64;66.66;99153.99;358069;111;1961964;-70
2021/01/17 00:13:24;;;;;;;49.75;24.63;;;;;;;-16.66;66.68;99153.19;353648;109;2297081;-70
2021/01/17 00:14:32;;;;;;;57.24;26.04;;;;;;;-16.64;66.86;99151.41;366067;109;1962999;-70
2021/01/17 00:15:37;;;;;;;51.90;25.59;;;;;;;-16.66;66.66;99156.61;336752;109;1962647;-70
2021/01/17 00:16:44;;;;;;;49.94;26.27;;;;;;;-16.65;66.69;99154.87;364037;110;1961960;-70
2021/01/17 00:17:50;;;;;;;52.36;25.24;;;;;;;-16.65;66.67;99152.28;331008;109;2087790;-71
2021/01/17 00:18:55;;;;;;;50.04;24.17;;;;;;;-16.64;66.65;99152.25;366617;109;1961887;-71
2021/01/17 00:20:13;;;;;;;58.71;28.27;;;;;;;-16.64;66.53;99148.83;365842;109;1961989;-71
2021/01/17 00:21:18;;;;;;;51.76;24.75;;;;;;;-16.64;66.49;99148.83;368018;109;1960979;-70
2021/01/17 00:22:23;;;;;;;53.82;26.32;;;;;;;-16.65;66.60;99147.95;365963;109;1964957;-69
2021/01/17 00:23:29;;;;;;;61.97;26.27;;;;;;;-16.67;66.45;99146.31;350997;109;2361030;-70
2021/01/17 00:24:34;;;;;;;58.06;29.04;;;;;;;-16.67;66.45;99152.35;356380;111;1966984;-70
2021/01/17 00:25:39;;;;;;;64.91;27.89;;;;;;;-16.68;66.45;99152.39;364472;109;1962060;-69
2021/01/17 00:26:45;;;;;;;50.12;25.31;;;;;;;-16.68;66.47;99149.80;343403;110;2511775;-70
2021/01/17 00:27:55;;;;;;;54.55;25.62;;;;;;;-16.70;66.36;99152.42;362300;112;1961990;-70
2021/01/17 00:29:01;;;;;;;61.46;29.36;;;;;;;-16.74;66.37;99147.42;359562;110;1961934;-70
2021/01/17 00:30:09;;;;;;;59.27;27.82;;;;;;;-16.74;66.55;99144.84;334057;111;2810983;-69
2021/01/17 00:31:15;;;;;;;60.58;27.57;;;;;;;-16.73;66.48;99154.27;363054;110;1964156;-69
2021/01/17 00:32:21;;;;;;;57.70;26.68;;;;;;;-16.75;66.46;99150.88;347762;110;1965004;-70
2021/01/17 00:33:27;;;;;;;55.21;26.02;;;;;;;-16.79;66.42;99157.92;362664;110;1961994;-70
2021/01/17 00:34:33;;;;;;;50.25;25.37;;;;;;;-16.80;66.48;99143.33;349560;111;2338944;-69
2021/01/17 00:35:38;;;;;;;64.41;26.57;;;;;;;-16.80;66.64;99155.37;362221;110;1963978;-70
2021/01/17 00:36:44;;;;;;;57.17;27.38;;;;;;;-16.82;66.60;99152.86;362447;110;1961978;-69
2021/01/17 00:37:52;;;;;;;54.49;26.15;;;;;;;-16.83;66.70;99156.31;357462;106;2166279;-71
2021/01/17 00:38:58;;;;;;;60.94;29.83;;;;;;;-16.81;66.71;99151.95;323442;116;2803955;-70
2021/01/17 00:40:04;;;;;;;57.06;25.78;;;;;;;-16.82;66.63;99152.02;341876;111;1961958;-70
2021/01/17 00:41:10;;;;;;;57.21;28.62;;;;;;;-16.83;66.55;99145.98;356343;111;1962059;-70
2021/01/17 00:42:16;;;;;;;56.64;27.15;;;;;;;-16.84;66.54;99157.22;348163;104;2331814;-70
2021/01/17 00:43:23;;;;;;;59.66;27.74;;;;;;;-16.86;66.62;99157.26;361613;109;1960869;-71
2021/01/17 00:44:28;;;;;;;58.49;28.13;;;;;;;-16.85;66.58;99152.96;351940;111;2285055;-71
2021/01/17 00:45:34;;;;;;;55.54;26.70;;;;;;;-16.84;66.54;99154.64;363784;111;1963966;-71
2021/01/17 00:46:41;;;;;;;63.97;27.95;;;;;;;-16.86;66.41;99156.42;347204;112;2234951;-70
2021/01/17 00:47:48;;;;;;;58.73;28.51;;;;;;;-16.87;66.50;99158.16;355064;112;1962027;-71
2021/01/17 00:48:53;;;;;;;55.14;28.12;;;;;;;-16.89;66.66;99154.77;344402;112;2301994;-71
2021/01/17 00:49:59;;;;;;;53.65;25.94;;;;;;;-16.88;66.59;99155.61;354000;112;1962043;-71
2021/01/17 00:51:13;;;;;;;62.21;25.83;;;;;;;-16.89;66.38;99161.69;354036;112;1962051;-70
2021/01/17 00:52:20;;;;;;;55.56;27.86;;;;;;;-16.93;66.44;99157.49;365460;110;1964006;-70
2021/01/17 00:53:28;;;;;;;52.53;24.57;;;;;;;-16.94;66.65;99163.56;360703;112;1961905;-70
2021/01/17 00:54:33;;;;;;;50.64;24.96;;;;;;;-16.97;66.61;99159.33;334396;111;2175008;-70
2021/01/17 00:55:42;;;;;;;49.31;24.93;;;;;;;-16.97;66.56;99168.83;359334;113;1962070;-70
2021/01/17 00:56:50;;;;;;;56.18;25.33;;;;;;;-16.99;66.42;99168.86;353840;106;2868011;-69
2021/01/17 00:57:56;;;;;;;52.46;24.57;;;;;;;-17.03;66.56;99162.11;377119;105;1961065;-70
2021/01/17 00:59:04;;;;;;;54.12;27.15;;;;;;;-17.05;66.66;99157.89;371210;107;1961894;-70
2021/01/17 01:00:13;;;;;;;54.05;24.26;;;;;;;-17.06;66.66;99162.21;372329;107;1961940;-70
2021/01/17 01:01:21;;;;;;;56.25;25.69;;;;;;;-17.08;66.77;99161.41;348388;107;2488607;-70
2021/01/17 01:02:26;;;;;;;58.66;25.41;;;;;;;-17.08;66.97;99153.66;362828;109;1961923;-71
2021/01/17 01:03:32;;;;;;;50.53;24.76;;;;;;;-17.06;67.01;99159.62;369819;106;1962188;-71
2021/01/17 01:04:38;;;;;;;54.54;24.97;;;;;;;-17.05;66.97;99158.72;347541;108;2228927;-71
2021/01/17 01:05:43;;;;;;;55.93;26.72;;;;;;;-17.03;67.02;99163.86;365904;109;1961960;-71
2021/01/17 01:06:54;;;;;;;55.51;26.58;;;;;;;-17.04;67.03;99155.23;343468;109;2503993;-71
2021/01/17 01:07:59;;;;;;;57.56;25.80;;;;;;;-17.02;66.91;99166.38;325633;109;2849976;-71
2021/01/17 01:09:08;;;;;;;51.67;26.88;;;;;;;-17.04;66.85;99164.73;348296;109;1961962;-71
2021/01/17 01:10:15;;;;;;;60.26;26.10;;;;;;;-17.02;67.00;99165.53;367371;104;1961978;-70
2021/01/17 01:11:31;;;;;;;54.86;24.98;;;;;;;-17.04;66.92;99165.56;354860;105;2871000;-70
2021/01/17 01:12:37;;;;;;;52.65;25.42;;;;;;;-17.04;66.88;99167.31;372284;108;1962037;-71
2021/01/17 01:13:42;;;;;;;49.06;23.94;;;;;;;-17.05;66.96;99170.80;358988;111;1962001;-70
2021/01/17 01:14:48;;;;;;;45.27;22.62;;;;;;;-17.04;67.04;99173.31;321135;114;2185947;-71
2021/01/17 01:15:53;;;;;;;50.67;25.36;;;;;;;-17.04;66.99;99172.48;353905;113;1960882;-70
2021/01/17 01:17:00;;;;;;;55.73;25.96;;;;;;;-17.07;66.90;99169.09;360586;112;1961919;-70
2021/01/17 01:18:06;;;;;;;55.04;25.14;;;;;;;-17.08;66.94;99169.15;361729;104;1963063;-69
2021/01/17 01:19:12;;;;;;;54.24;25.27;;;;;;;-17.08;67.05;99163.98;363933;109;1962002;-70
2021/01/17 01:20:17;;;;;;;52.21;25.46;;;;;;;-17.07;67.06;99166.50;344461;109;2211893;-69
2021/01/17 01:21:34;;;;;;;49.73;24.75;;;;;;;-17.05;67.08;99170.80;358692;111;1961941;-70
2021/01/17 01:22:43;;;;;;;51.96;25.63;;;;;;;-17.06;66.98;99169.95;334401;108;2752972;-70
2021/01/17 01:23:49;;;;;;;54.24;26.24;;;;;;;-17.08;67.09;99172.58;321043;110;2230994;-70
2021/01/17 01:24:54;;;;;;;57.12;27.42;;;;;;;-17.08;67.20;99164.83;361034;110;1960807;-70
2021/01/17 01:26:00;;;;;;;57.39;26.38;;;;;;;-17.05;67.32;99170.80;361958;110;1961917;-70
2021/01/17 01:27:06;;;;;;;66.03;29.93;;;;;;;-17.03;67.33;99171.61;332210;110;2219894;-70
2021/01/17 01:28:11;;;;;;;54.19;27.14;;;;;;;-17.00;67.22;99167.18;359761;110;1961979;-70
2021/01/17 01:29:18;;;;;;;58.26;25.94;;;;;;;-16.98;67.22;99164.56;361106;112;1961961;-70
2021/01/17 01:30:26;;;;;;;55.58;25.69;;;;;;;-16.96;67.17;99163.63;360750;110;1961712;-70
2021/01/17 01:31:33;;;;;;;54.73;26.70;;;;;;;-16.94;67.09;99169.56;340743;109;1960848;-70
2021/01/17 01:32:38;;;;;;;59.31;27.64;;;;;;;-16.93;67.03;99154.91;362283;109;1960768;-70
2021/01/17 01:33:44;;;;;;;54.82;26.03;;;;;;;-16.91;67.03;99160.88;342645;109;2228771;-70
2021/01/17 01:34:50;;;;;;;57.94;27.53;;;;;;;-16.92;66.96;99157.45;361870;110;1960739;-69
2021/01/17 01:35:55;;;;;;;64.87;30.57;;;;;;;-16.94;66.98;99161.81;360784;110;1960742;-70
2021/01/17 01:37:00;;;;;;;66.32;29.87;;;;;;;-16.95;66.97;99162.72;350812;109;2327756;-70
2021/01/17 01:38:08;;;;;;;46.50;23.92;;;;;;;-16.97;66.93;99161.92;361278;109;1960756;-70
2021/01/17 01:39:14;;;;;;;56.39;26.48;;;;;;;-16.96;67.18;99167.92;338978;110;2202914;-70
2021/01/17 01:40:30;;;;;;;55.43;25.82;;;;;;;-16.94;67.28;99159.23;354857;114;1960825;-69
2021/01/17 01:41:39;;;;;;;62.46;27.86;;;;;;;-16.94;67.25;99159.23;343784;110;2569937;-71
2021/01/17 01:42:45;;;;;;;57.31;26.32;;;;;;;-16.94;67.24;99156.66;352957;110;2822851;-71
2021/01/17 01:43:50;;;;;;;64.07;29.29;;;;;;;-16.94;67.18;99161.81;360447;112;1961046;-71
2021/01/17 01:44:56;;;;;;;55.24;28.92;;;;;;;-16.94;67.29;99154.06;361961;110;1960852;-70
2021/01/17 01:46:02;;;;;;;60.23;28.13;;;;;;;-16.95;67.14;99157.55;345482;112;2191877;-70
2021/01/17 01:47:14;;;;;;;54.72;27.36;;;;;;;-16.95;67.07;99149.80;361961;112;1960775;-70
2021/01/17 01:48:21;;;;;;;60.63;29.14;;;;;;;-16.93;67.10;99152.33;348341;110;1962040;-70
2021/01/17 01:49:27;;;;;;;60.10;29.43;;;;;;;-16.93;67.06;99162.66;362511;112;1960908;-70
2021/01/17 01:50:33;;;;;;;64.32;27.96;;;;;;;-16.95;67.16;99162.72;354758;110;1961927;-70
2021/01/17 01:51:53;;;;;;;58.17;28.19;;;;;;;-16.96;67.12;99160.17;361403;112;1960920;-71
2021/01/17 01:53:00;;;;;;;50.81;25.89;;;;;;;-16.94;67.21;99161.81;354038;112;1962016;-70
2021/01/17 01:54:08;;;;;;;59.69;28.31;;;;;;;-16.93;67.13;99163.53;357288;111;1962909;-70
2021/01/17 01:55:14;;;;;;;47.86;24.63;;;;;;;-16.92;67.13;99162.63;351995;111;1961962;-71
2021/01/17 01:56:20;;;;;;;57.13;23.08;;;;;;;-16.91;66.98;99156.55;357195;112;1962950;-70
2021/01/17 01:57:26;;;;;;;52.46;27.32;;;;;;;-16.93;67.00;99157.49;325676;111;2175999;-71
2021/01/17 01:58:32;;;;;;;50.87;28.23;;;;;;;-16.95;67.00;99161.88;356299;111;1961992;-71
2021/01/17 01:59:38;;;;;;;61.76;30.14;;;;;;;-16.99;66.97;99161.11;343199;111;2384891;-71
2021/01/17 02:00:43;;;;;;;60.28;29.88;;;;;;;-16.97;67.15;99163.66;354332;111;1961944;-71
2021/01/17 02:01:50;;;;;;;61.31;29.19;;;;;;;-16.96;67.00;99155.87;357900;111;1961075;-71
2021/01/17 02:02:56;;;;;;;66.31;31.55;;;;;;;-16.96;66.86;99158.46;334197;111;1962605;-71
2021/01/17 02:04:01;;;;;;;58.12;29.09;;;;;;;-16.99;66.83;99157.69;358629;111;1960887;-71
2021/01/17 02:05:08;;;;;;;71.01;33.26;;;;;;;-17.01;66.86;99162.92;354847;109;1960858;-70
2021/01/17 02:06:19;;;;;;;62.26;31.57;;;;;;;-17.01;66.83;99167.21;357097;106;1962210;-71
2021/01/17 02:07:46;;;;;;;57.68;26.04;;;;;;;-17.02;66.95;99156.05;324995;109;2814946;-71
2021/01/17 02:09:04;;;;;;;56.84;26.12;;;;;;;-17.00;67.07;99156.02;357702;111;1961993;-71
2021/01/17 02:10:10;;;;;;;50.68;23.00;;;;;;;-17.01;66.72;99159.47;358212;111;1963947;-71
2021/01/17 02:11:48;;;;;;;52.31;23.64;;;;;;;-17.04;66.94;99162.15;318654;111;2836934;-71
2021/01/17 02:13:02;;;;;;;47.95;21.30;;;;;;;-17.04;66.85;99160.41;349460;111;2881056;-70
2021/01/17 02:14:15;;;;;;;49.01;20.47;;;;;;;-17.07;66.84;99157.92;341553;111;2876892;-70
2021/01/17 02:15:33;;;;;;;46.79;22.53;;;;;;;-17.10;66.94;99143.36;357798;111;1964961;-70
2021/01/17 02:16:43;;;;;;;43.02;20.89;;;;;;;-17.05;66.84;99152.72;351689;111;2183974;-71
2021/01/17 02:17:50;;;;;;;46.03;22.81;;;;;;;-17.11;66.71;99157.17;357534;111;1961915;-71
2021/01/17 02:18:57;;;;;;;42.76;23.28;;;;;;;-17.14;66.77;99153.86;347125;114;1961958;-71
2021/01/17 02:20:22;;;;;;;39.44;19.63;;;;;;;-17.30;66.94;99135.39;339093;112;2196043;-70
2021/01/17 02:21:30;;;;;;;42.74;20.57;;;;;;;-17.18;66.90;99158.24;355934;112;1962058;-70
2021/01/17 02:22:42;;;;;;;42.38;20.89;;;;;;;-17.19;67.04;99164.31;322327;112;2109902;-69
2021/01/17 02:24:02;;;;;;;;;;;;;;;-17.18;66.95;99154.82;357170;107;1960783;-71
2021/01/17 02:25:09;;;;;;;36.42;16.87;;;;;;;-17.16;67.15;99163.37;356285;108;2334077;-70
2021/01/17 02:26:17;;;;;;;44.19;20.42;;;;;;;-17.19;66.96;99156.56;340967;112;2404893;-70
2021/01/17 02:27:22;;;;;;;38.51;21.14;;;;;;;-17.23;67.06;99152.37;362590;112;1962784;-70
2021/01/17 02:28:28;;;;;;;35.07;19.02;;;;;;;-17.26;67.13;99161.95;356086;112;1961971;-69
2021/01/17 02:29:35;;;;;;;42.79;19.94;;;;;;;-17.26;67.25;99156.79;311120;112;2233957;-69
2021/01/17 02:30:46;;;;;;;38.42;20.44;;;;;;;-17.26;67.35;99154.20;334935;108;2684941;-70
2021/01/17 02:31:54;;;;;;;44.01;21.83;;;;;;;-17.26;67.20;99160.20;321020;112;2214196;-71
2021/01/17 02:33:16;;;;;;;45.12;20.29;;;;;;;-17.26;67.25;99165.38;322026;110;2232578;-69
2021/01/17 02:34:23;;;;;;;38.28;18.35;;;;;;;-17.26;67.38;99165.38;370935;109;1961941;-70
2021/01/17 02:35:32;;;;;;;44.71;20.76;;;;;;;-17.26;67.36;99167.95;375548;108;1969942;-71
2021/01/17 02:37:15;;;;;;;44.52;21.28;;;;;;;-17.26;67.21;99160.20;364944;109;1962983;-69
2021/01/17 02:38:44;;;;;;;38.77;18.22;;;;;;;-17.24;67.22;99161.02;372462;108;1964014;-71
2021/01/17 02:40:07;;;;;;;43.29;20.60;;;;;;;-17.26;67.24;99161.95;365264;107;1961997;-70
2021/01/17 02:41:34;;;;;;;47.19;19.27;;;;;;;-17.27;67.13;99170.59;358520;109;1961976;-70
2021/01/17 02:42:41;;;;;;;40.89;19.51;;;;;;;-17.29;67.10;99162.88;356634;110;2231011;-70
2021/01/17 02:43:47;;;;;;;45.84;20.98;;;;;;;-17.29;67.04;99163.72;363285;103;1962964;-70
2021/01/17 02:44:53;;;;;;;44.16;21.53;;;;;;;-17.30;66.95;99161.20;326233;109;2194254;-70
2021/01/17 02:45:58;;;;;;;47.67;21.58;;;;;;;-17.34;66.98;99163.01;368207;109;1965009;-69
2021/01/17 02:47:04;;;;;;;43.06;22.24;;;;;;;-17.33;66.95;99158.69;368359;109;1962960;-70
2021/01/17 02:48:10;;;;;;;40.71;20.84;;;;;;;-17.36;67.11;99163.95;349664;109;2184990;-69
2021/01/17 02:49:15;;;;;;;48.05;22.09;;;;;;;-17.38;67.26;99160.55;357630;111;1961933;-69
2021/01/17 02:50:22;;;;;;;46.27;21.82;;;;;;;-17.39;67.16;99154.55;350786;113;2848904;-69
2021/01/17 02:51:27;;;;;;;42.15;21.78;;;;;;;-17.37;67.19;99163.11;348355;112;1962005;-69
2021/01/17 02:52:43;;;;;;;48.61;22.91;;;;;;;-17.38;67.24;99158.84;368816;106;1961819;-71
2021/01/17 02:53:58;;;;;;;49.97;21.35;;;;;;;-17.38;67.22;99160.55;358971;109;2266929;-70
2021/01/17 02:55:05;;;;;;;44.33;19.96;;;;;;;-17.37;67.19;99157.94;367992;109;1961936;-70
2021/01/17 02:56:15;;;;;;;50.69;22.19;;;;;;;-17.36;67.13;99151.88;358169;109;2174986;-71
2021/01/17 02:57:24;;;;;;;47.54;22.09;;;;;;;-17.35;67.21;99152.75;344076;109;2231869;-70
2021/01/17 02:58:29;;;;;;;51.06;23.16;;;;;;;-17.37;67.12;99149.36;340507;105;2229729;-71
2021/01/17 02:59:38;;;;;;;46.35;21.83;;;;;;;-17.38;67.14;99153.69;369574;108;1961968;-70
2021/01/17 03:00:49;;;;;;;43.83;21.64;;;;;;;-17.38;67.18;99150.23;325774;108;2893737;-70
2021/01/17 03:01:57;;;;;;;45.88;22.33;;;;;;;-17.36;67.29;99145.88;326002;108;2879842;-70
2021/01/17 03:03:05;;;;;;;45.34;21.13;;;;;;;-17.38;67.20;99143.36;368317;108;1963910;-70
2021/01/17 03:04:36;;;;;;;47.77;20.74;;;;;;;-17.39;67.28;99140.81;368883;108;1961931;-70
2021/01/17 03:05:44;;;;;;;47.47;21.58;;;;;;;-17.38;67.13;99140.78;340659;108;2183988;-70
2021/01/17 03:06:50;;;;;;;45.83;21.47;;;;;;;-17.38;67.30;99143.36;333350;108;2782944;-70
2021/01/17 03:07:57;;;;;;;50.33;23.57;;;;;;;-17.39;67.33;99148.55;369624;108;1961972;-70
2021/01/17 03:09:03;;;;;;;49.12;23.29;;;;;;;-17.39;67.35;99141.65;327121;108;2896971;-70
2021/01/17 03:10:10;;;;;;;45.13;21.33;;;;;;;-17.38;67.27;99145.07;368740;108;1962985;-70
2021/01/17 03:11:16;;;;;;;47.87;22.50;;;;;;;-17.38;67.28;99145.07;352079;108;2197016;-69
2021/01/17 03:12:21;;;;;;;50.00;21.69;;;;;;;-17.37;67.13;99139.03;370332;108;1961958;-70
2021/01/17 03:13:28;;;;;;;47.62;22.41;;;;;;;-17.38;67.18;99148.52;369866;108;1962911;-70
2021/01/17 03:14:38;;;;;;;46.00;22.18;;;;;;;-17.39;67.15;99144.23;368865;108;1962026;-70
2021/01/17 03:15:55;;;;;;;46.16;23.73;;;;;;;-17.38;67.06;99145.07;369202;108;1962107;-70
2021/01/17 03:17:03;;;;;;;48.59;22.82;;;;;;;-17.39;67.13;99133.91;357032;106;1961920;-70
2021/01/17 03:18:09;;;;;;;43.46;21.29;;;;;;;-17.38;67.16;99133.03;357832;107;2201013;-71
2021/01/17 03:19:14;;;;;;;50.35;23.46;;;;;;;-17.36;67.04;99140.72;375213;106;1962031;-71
2021/01/17 03:20:30;;;;;;;44.72;23.86;;;;;;;-17.39;66.99;99143.39;376334;106;1962970;-71
2021/01/17 03:21:42;;;;;;;56.02;23.42;;;;;;;-17.39;67.08;99141.65;338710;105;2156453;-71
2021/01/17 03:22:48;;;;;;;;;;;;;;;-17.38;67.08;99142.48;376125;107;1961057;-71
2021/01/17 03:24:02;;;;;;;40.61;18.51;;;;;;;-17.39;67.12;99145.97;331080;110;2075247;-71
2021/01/17 03:25:08;;;;;;;42.01;19.81;;;;;;;-17.38;67.03;99147.65;361798;103;1961980;-71
2021/01/17 03:26:15;;;;;;;40.47;20.67;;;;;;;-17.40;67.04;99142.55;360180;105;2873001;-70
2021/01/17 03:27:20;;;;;;;47.72;22.97;;;;;;;-17.42;66.97;99139.16;362620;106;1960892;-70
2021/01/17 03:28:26;;;;;;;40.45;20.03;;;;;;;-17.41;66.96;99152.91;376589;107;1963083;-71
2021/01/17 03:29:31;;;;;;;47.27;20.42;;;;;;;-17.44;66.92;99142.67;375328;107;1961053;-70
2021/01/17 03:30:36;;;;;;;45.46;23.34;;;;;;;-17.46;67.00;99142.73;349960;106;2237980;-71
2021/01/17 03:31:41;;;;;;;42.67;22.38;;;;;;;-17.46;67.00;99141.87;375041;106;1960827;-70
2021/01/17 03:32:47;;;;;;;40.78;20.77;;;;;;;-17.47;66.91;99137.61;374348;106;1960805;-70
2021/01/17 03:34:04;;;;;;;44.43;21.26;;;;;;;-17.47;67.00;99138.45;336668;108;2154464;-70
2021/01/17 03:35:11;;;;;;;51.25;22.79;;;;;;;-17.48;67.01;99133.34;364076;110;1960881;-70
2021/01/17 03:36:17;;;;;;;42.79;21.20;;;;;;;-17.49;67.11;99135.06;361930;110;1960866;-70
2021/01/17 03:37:23;;;;;;;47.36;22.89;;;;;;;-17.45;67.17;99133.26;362810;110;1960983;-70
2021/01/17 03:38:28;;;;;;;46.91;23.25;;;;;;;-17.46;66.95;99131.55;350909;112;2171773;-69
2021/01/17 03:39:33;;;;;;;44.09;21.37;;;;;;;-17.48;67.10;99135.93;358981;110;1961883;-69
2021/01/17 03:40:40;;;;;;;49.90;22.72;;;;;;;-17.44;67.32;99132.36;333292;111;2581038;-69
2021/01/17 03:41:46;;;;;;;43.26;21.56;;;;;;;-17.43;67.30;99136.64;345724;113;1960947;-70
2021/01/17 03:42:52;;;;;;;45.54;22.94;;;;;;;-17.41;67.27;99140.84;357270;113;1960681;-69
2021/01/17 03:43:58;;;;;;;48.62;24.37;;;;;;;-17.44;67.23;99140.94;351052;113;2224933;-69
2021/01/17 03:45:04;;;;;;;48.26;24.37;;;;;;;-17.43;67.29;99136.64;356909;113;1961833;-69
2021/01/17 03:46:10;;;;;;;46.86;25.80;;;;;;;-17.51;67.29;99116.22;316098;113;2894948;-70
2021/01/17 03:47:16;;;;;;;52.92;27.29;;;;;;;-17.42;67.24;99125.42;355548;113;1962879;-70
2021/01/17 03:48:35;;;;;;;51.70;27.48;;;;;;;-17.42;67.31;99125.42;358032;113;1960918;-70
2021/01/17 03:49:41;;;;;;;57.86;28.38;;;;;;;-17.44;67.28;99119.45;358476;107;1962253;-70
2021/01/17 03:50:47;;;;;;;64.19;32.01;;;;;;;-17.44;67.22;99122.03;343114;112;1960786;-70
2021/01/17 03:51:53;;;;;;;56.28;29.51;;;;;;;-17.46;67.15;99114.35;353820;112;1962023;-71
2021/01/17 03:52:58;;;;;;;50.29;25.92;;;;;;;-17.46;67.17;99113.48;343829;112;2262003;-70
2021/01/17 03:54:04;;;;;;;46.72;24.65;;;;;;;-17.43;67.25;99124.58;345731;115;1961988;-71
2021/01/17 03:55:10;;;;;;;53.76;27.79;;;;;;;-17.46;67.12;99118.64;349457;114;1963018;-70
2021/01/17 03:56:17;;;;;;;56.02;25.97;;;;;;;-17.42;67.34;99117.67;312244;114;2197882;-70
2021/01/17 03:57:22;;;;;;;45.06;25.27;;;;;;;-17.44;67.17;99114.29;341924;117;1961976;-70
2021/01/17 03:58:28;;;;;;;45.62;23.12;;;;;;;-17.46;67.11;99116.94;325847;115;2431940;-71
2021/01/17 03:59:33;;;;;;;46.58;22.67;;;;;;;-17.45;67.18;99110.03;342834;114;1960869;-70
2021/01/17 04:00:50;;;;;;;44.47;22.02;;;;;;;-17.46;67.20;99108.32;347736;114;1963954;-70
2021/01/17 04:01:55;;;;;;;51.93;23.76;;;;;;;-17.47;67.25;99111.80;338663;110;1962946;-70
2021/01/17 04:03:01;;;;;;;52.27;22.08;;;;;;;-17.46;67.15;99111.77;361746;110;1962972;-71
2021/01/17 04:04:07;;;;;;;46.56;23.33;;;;;;;-17.46;67.34;99113.48;328528;112;2827023;-70
2021/01/17 04:05:12;;;;;;;43.63;22.01;;;;;;;-17.47;67.36;99116.97;339132;112;1962046;-70
2021/01/17 04:06:20;;;;;;;50.46;23.24;;;;;;;-17.48;67.34;99113.55;323588;112;2754896;-70
2021/01/17 04:07:28;;;;;;;44.11;22.93;;;;;;;-17.48;67.38;99113.55;341712;112;1960897;-70
2021/01/17 04:08:33;;;;;;;42.13;23.52;;;;;;;-17.49;67.37;99109.25;325894;112;2069696;-71
2021/01/17 04:09:38;;;;;;;43.57;21.71;;;;;;;-17.49;67.30;99109.25;357142;112;1961865;-70
2021/01/17 04:10:46;;;;;;;49.55;23.79;;;;;;;-17.46;67.32;99118.64;328421;112;2196026;-70
2021/01/17 04:12:03;;;;;;;50.30;24.79;;;;;;;-17.47;67.23;99115.22;357770;112;1964039;-70
2021/01/17 04:13:12;;;;;;;49.02;23.89;;;;;;;-17.47;67.21;99112.64;315125;114;2094965;-71
2021/01/17 04:14:28;;;;;;;48.84;23.13;;;;;;;-17.47;67.29;99111.80;320817;112;2172361;-70
2021/01/17 04:15:34;;;;;;;45.13;22.37;;;;;;;-17.47;67.37;99124.70;344459;115;1961980;-71
2021/01/17 04:16:53;;;;;;;48.40;22.55;;;;;;;-17.43;67.37;99119.42;347956;113;1960912;-70
2021/01/17 04:17:58;;;;;;;40.58;19.34;;;;;;;-17.40;67.42;99126.23;351489;110;2189835;-70
2021/01/17 04:19:03;;;;;;;46.97;22.72;;;;;;;-17.42;67.40;99125.42;348003;112;1962964;-70
2021/01/17 04:20:10;;;;;;;48.43;23.19;;;;;;;-17.43;67.33;99114.25;353405;112;1962026;-70
2021/01/17 04:21:16;;;;;;;45.27;23.52;;;;;;;-17.44;67.36;99129.77;318204;112;2111164;-70
2021/01/17 04:22:21;;;;;;;48.28;23.17;;;;;;;-17.46;67.34;99118.64;340574;117;1963901;-70
2021/01/17 04:23:36;;;;;;;54.49;25.17;;;;;;;-17.47;67.31;99120.38;352523;112;1962950;-71
2021/01/17 04:24:42;;;;;;;45.06;22.33;;;;;;;-17.44;67.33;99122.03;330121;110;2215976;-70
2021/01/17 04:25:47;;;;;;;49.86;22.81;;;;;;;-17.47;67.30;99119.55;353071;113;1960813;-70
2021/01/17 04:26:59;;;;;;;47.01;22.98;;;;;;;-17.45;67.36;99120.35;359369;110;1961953;-70
2021/01/17 04:28:07;;;;;;;;;;;;;;;-17.46;67.37;99119.52;351576;113;1961017;-70
2021/01/17 04:29:12;;;;;;;40.54;19.65;;;;;;;-17.45;67.42;99120.35;344515;111;2231090;-70
2021/01/17 04:30:19;;;;;;;50.79;24.21;;;;;;;-17.44;67.37;99129.77;358180;111;1962024;-70
2021/01/17 04:31:25;;;;;;;47.06;25.21;;;;;;;-17.45;67.38;99123.77;336987;105;2208014;-70
2021/01/17 04:32:30;;;;;;;52.07;23.79;;;;;;;-17.42;67.29;99126.26;347133;113;1961995;-70
2021/01/17 04:33:36;;;;;;;50.98;24.22;;;;;;;-17.43;67.24;99131.48;356178;110;1961915;-70
2021/01/17 04:34:41;;;;;;;55.43;27.93;;;;;;;-17.46;67.22;99124.67;344499;114;2295008;-70
2021/01/17 04:35:47;;;;;;;58.31;30.04;;;;;;;-17.46;67.33;99126.38;352919;114;1962947;-70
2021/01/17 04:36:54;;;;;;;61.81;30.24;;;;;;;-17.46;67.32;99126.38;341300;114;2901023;-70
2021/01/17 04:38:01;;;;;;;61.73;30.87;;;;;;;-17.46;67.42;99126.38;349946;114;1962016;-70
2021/01/17 04:39:07;;;;;;;56.01;27.18;;;;;;;-17.45;67.37;99130.67;341702;114;2310955;-70
2021/01/17 04:40:13;;;;;;;55.15;25.59;;;;;;;-17.44;67.41;99129.77;352274;112;1960833;-70
2021/01/17 04:41:21;;;;;;;52.24;25.81;;;;;;;-17.46;67.59;99123.80;350631;113;1961847;-71
2021/01/17 04:42:30;;;;;;;59.12;28.28;;;;;;;-17.45;67.68;99133.26;349876;114;1961946;-70
2021/01/17 04:43:47;;;;;;;55.27;27.18;;;;;;;-17.44;67.57;99128.03;311653;114;2185992;-70
2021/01/17 04:45:07;;;;;;;57.03;27.09;;;;;;;-17.41;67.48;99130.52;353869;113;1970958;-70
2021/01/17 04:46:15;;;;;;;48.03;24.44;;;;;;;-17.41;67.58;99133.09;353523;113;1962942;-70
2021/01/17 04:47:34;;;;;;;62.74;29.36;;;;;;;-17.41;67.59;99133.09;352818;112;1962014;-70
2021/01/17 04:48:42;;;;;;;54.57;27.56;;;;;;;-17.40;67.55;99129.64;344717;116;1962008;-71
2021/01/17 04:49:52;;;;;;;51.07;27.42;;;;;;;-17.41;67.41;99132.26;348547;114;1961096;-70
2021/01/17 04:51:04;;;;;;;60.03;28.21;;;;;;;-17.41;67.41;99133.09;349189;113;1962914;-70
2021/01/17 04:52:12;;;;;;;60.68;29.04;;;;;;;-17.43;67.35;99129.74;322761;114;2157038;-70
2021/01/17 04:53:20;;;;;;;56.84;30.59;;;;;;;-17.43;67.41;99134.91;328271;114;2169987;-70
2021/01/17 04:54:27;;;;;;;53.72;28.13;;;;;;;-17.44;67.39;99133.19;350094;114;1960717;-70
2021/01/17 04:55:36;;;;;;;57.76;28.23;;;;;;;-17.44;67.46;99125.45;348481;114;1962044;-70
2021/01/17 04:56:46;;;;;;;56.86;30.55;;;;;;;-17.43;67.49;99128.91;349814;113;1962038;-70
2021/01/17 04:58:17;;;;;;;57.33;27.25;;;;;;;-17.45;67.46;99128.94;325604;114;2876998;-70
2021/01/17 04:59:32;;;;;;;53.27;25.94;;;;;;;-17.45;67.50;99125.52;339424;114;1962021;-71
2021/01/17 05:00:41;;;;;;;59.78;28.03;;;;;;;-17.46;67.46;99135.00;340042;114;2868919;-70
2021/01/17 05:01:54;;;;;;;57.22;27.97;;;;;;;-17.46;67.56;99134.13;348701;108;1960806;-71
2021/01/17 05:03:27;;;;;;;56.23;28.78;;;;;;;-17.45;67.62;99125.52;347803;110;1962041;-70
2021/01/17 05:05:09;;;;;;;55.83;26.55;;;;;;;-17.46;67.47;99131.55;360368;110;1961889;-70
2021/01/17 05:06:22;;;;;;;51.69;23.92;;;;;;;-17.48;67.32;99136.77;321208;110;2146065;-70